createdAt,value
2017-09-21T00:01:39.499Z,1.77
2017-09-21T00:04:07.373Z,2.27
2017-09-21T00:06:35.329Z,2.90
2017-09-21T00:09:03.311Z,4.23
2017-09-21T00:11:31.149Z,1.57
2017-09-21T00:13:59.098Z,2.90
2017-09-21T00:16:27.026Z,3.27
2017-09-21T00:18:54.898Z,1.73
2017-09-21T00:21:22.803Z,1.53
2017-09-21T00:23:50.681Z,5.30
2017-09-21T00:26:18.497Z,3.07
2017-09-21T00:28:47.170Z,1.83
2017-09-21T00:31:15.825Z,2.03
2017-09-21T00:33:43.630Z,3.60
2017-09-21T00:36:12.293Z,4.50
2017-09-21T00:38:40.236Z,3.47
2017-09-21T00:41:08.225Z,3.90
2017-09-21T00:43:36.271Z,4.13
2017-09-21T00:46:04.153Z,2.63
2017-09-21T00:48:32.099Z,5.83
2017-09-21T00:51:00.120Z,8.73
2017-09-21T00:53:28.018Z,1.93
2017-09-21T00:55:55.961Z,3.30
2017-09-21T00:58:23.957Z,3.00
2017-09-21T01:00:51.823Z,2.63
2017-09-21T01:03:20.519Z,1.90
2017-09-21T01:05:48.483Z,1.60
2017-09-21T01:08:16.405Z,3.63
2017-09-21T01:10:44.379Z,2.47
2017-09-21T01:13:12.290Z,12.90
2017-09-21T01:15:40.200Z,1.97
2017-09-21T01:18:08.202Z,2.07
2017-09-21T01:20:36.185Z,2.50
2017-09-21T01:23:04.087Z,3.70
2017-09-21T01:25:32.121Z,2.03
2017-09-21T01:28:00.077Z,4.60
2017-09-21T01:30:27.950Z,4.03
2017-09-21T01:32:55.822Z,6.27
2017-09-21T01:35:23.706Z,4.60
2017-09-21T01:37:51.603Z,2.23
2017-09-21T01:40:19.590Z,2.37
2017-09-21T01:42:47.485Z,2.67
2017-09-21T01:45:15.307Z,1.97
2017-09-21T01:47:44.071Z,2.40
2017-09-21T01:50:11.923Z,2.67
2017-09-21T01:52:39.815Z,1.53
2017-09-21T01:55:07.734Z,4.20
2017-09-21T01:57:35.621Z,2.17
2017-09-21T02:00:03.495Z,1.63
2017-09-21T02:02:31.468Z,3.00
2017-09-21T02:04:59.303Z,1.20
2017-09-21T02:07:27.151Z,2.83
2017-09-21T02:09:55.060Z,10.37
2017-09-21T02:12:22.941Z,1.70
2017-09-21T02:14:50.762Z,3.17
2017-09-21T02:17:18.642Z,3.63
2017-09-21T02:19:46.514Z,2.17
2017-09-21T02:22:14.477Z,5.63
2017-09-21T02:24:42.448Z,3.87
2017-09-21T02:27:10.323Z,1.93
2017-09-21T02:29:38.140Z,5.40
2017-09-21T02:32:06.113Z,2.43
2017-09-21T02:34:33.983Z,1.47
2017-09-21T02:37:01.893Z,2.30
2017-09-21T02:39:29.700Z,4.00
2017-09-21T02:41:57.579Z,1.23
2017-09-21T02:44:25.380Z,3.90
2017-09-21T02:46:53.333Z,5.93
2017-09-21T02:49:21.236Z,1.90
2017-09-21T02:51:49.102Z,3.73
2017-09-21T02:54:17.046Z,2.47
2017-09-21T02:56:44.944Z,1.90
2017-09-21T02:59:12.829Z,2.40
2017-09-21T03:01:40.743Z,2.60
2017-09-21T03:04:08.599Z,1.47
2017-09-21T03:06:36.508Z,3.37
2017-09-21T03:09:05.206Z,3.10
2017-09-21T03:11:33.837Z,3.33
2017-09-21T03:14:01.781Z,3.90
2017-09-21T03:16:29.620Z,1.90
2017-09-21T03:18:57.488Z,1.67
2017-09-21T03:21:25.397Z,3.70
2017-09-21T03:23:53.248Z,2.37
2017-09-21T03:26:21.081Z,1.93
2017-09-21T03:28:48.995Z,6.77
2017-09-21T03:31:16.804Z,4.87
2017-09-21T03:33:45.606Z,6.33
2017-09-21T03:36:13.510Z,2.27
2017-09-21T03:38:41.464Z,3.07
2017-09-21T03:41:09.355Z,2.83
2017-09-21T03:43:39.868Z,1.97
2017-09-21T03:46:07.811Z,2.83
2017-09-21T03:48:35.768Z,1.70
2017-09-21T03:51:03.654Z,4.23
2017-09-21T03:53:31.491Z,1.63
2017-09-21T03:55:59.425Z,2.50
2017-09-21T03:58:27.281Z,5.27
2017-09-21T04:00:55.184Z,4.77
2017-09-21T04:03:23.133Z,5.33
2017-09-21T04:05:51.805Z,5.00
2017-09-21T04:08:19.885Z,3.43
2017-09-21T04:10:48.621Z,3.00
2017-09-21T04:13:16.426Z,2.87
2017-09-21T04:15:44.305Z,5.53
2017-09-21T04:18:12.197Z,4.77
2017-09-21T04:20:40.857Z,3.63
2017-09-21T04:23:08.723Z,2.97
2017-09-21T04:25:36.572Z,5.07
2017-09-21T04:28:04.384Z,2.20
2017-09-21T04:30:32.270Z,5.63
2017-09-21T04:33:00.832Z,6.30
2017-09-21T04:35:28.664Z,3.93
2017-09-21T04:37:56.516Z,3.97
2017-09-21T04:40:24.501Z,2.07
2017-09-21T04:45:50.007Z,3.30
2017-09-21T04:48:17.885Z,2.43
2017-09-21T04:50:45.817Z,4.70
2017-09-21T04:53:13.823Z,4.27
2017-09-21T04:55:43.590Z,8.07
2017-09-21T04:58:11.419Z,4.47
2017-09-21T05:00:39.379Z,6.00
2017-09-21T05:03:07.176Z,2.30
2017-09-21T05:05:36.702Z,4.43
2017-09-21T05:08:04.651Z,1.73
2017-09-21T05:10:32.645Z,2.57
2017-09-21T05:13:00.487Z,1.83
2017-09-21T05:15:29.129Z,3.60
2017-09-21T05:17:57.354Z,2.43
2017-09-21T05:20:25.148Z,3.00
2017-09-21T05:22:53.416Z,4.60
2017-09-21T05:25:21.306Z,2.53
2017-09-21T05:27:50.209Z,2.13
2017-09-21T05:30:18.047Z,4.10
2017-09-21T05:32:46.396Z,3.87
2017-09-21T05:35:14.356Z,2.53
2017-09-21T05:37:47.540Z,4.13
2017-09-21T05:40:15.470Z,8.03
2017-09-21T05:42:43.239Z,4.80
2017-09-21T05:45:11.057Z,7.97
2017-09-21T05:47:38.907Z,3.63
2017-09-21T05:50:06.724Z,2.13
2017-09-21T05:52:35.223Z,3.53
2017-09-21T05:55:03.998Z,3.07
2017-09-21T05:57:32.964Z,3.70
2017-09-21T06:00:00.749Z,3.10
2017-09-21T06:02:28.754Z,5.23
2017-09-21T06:04:56.621Z,4.50
2017-09-21T06:07:24.508Z,14.00
2017-09-21T06:09:58.082Z,4.73
2017-09-21T06:12:25.948Z,5.40
2017-09-21T06:14:54.702Z,5.20
2017-09-21T06:17:23.496Z,7.63
2017-09-21T06:19:51.361Z,11.90
2017-09-21T06:22:19.288Z,4.27
2017-09-21T06:24:47.164Z,11.53
2017-09-21T06:27:15.089Z,10.10
2017-09-21T06:29:43.111Z,3.73
2017-09-21T06:32:10.987Z,3.80
2017-09-21T06:34:38.921Z,4.03
2017-09-21T06:37:06.742Z,1.90
2017-09-21T06:39:34.657Z,3.37
2017-09-21T06:42:03.325Z,4.23
2017-09-21T06:44:32.251Z,5.67
2017-09-21T06:47:00.218Z,3.90
2017-09-21T06:49:29.411Z,4.73
2017-09-21T06:51:57.403Z,5.50
2017-09-21T06:54:28.504Z,7.20
2017-09-21T06:56:56.524Z,5.43
2017-09-21T06:59:29.169Z,3.10
2017-09-21T07:01:57.229Z,1.60
2017-09-21T07:07:00.973Z,4.83
2017-09-21T07:09:31.531Z,2.10
2017-09-21T07:11:59.452Z,2.07
2017-09-21T07:14:27.429Z,3.00
2017-09-21T07:16:55.328Z,2.80
2017-09-21T07:19:23.157Z,1.60
2017-09-21T07:21:51.116Z,2.00
2017-09-21T07:24:18.989Z,3.50
2017-09-21T07:26:46.761Z,2.70
2017-09-21T07:29:14.751Z,2.90
2017-09-21T07:31:42.701Z,2.80
2017-09-21T07:34:11.373Z,4.30
2017-09-21T07:36:39.234Z,4.17
2017-09-21T07:39:07.099Z,3.43
2017-09-21T07:41:35.099Z,8.07
2017-09-21T07:44:02.917Z,4.23
2017-09-21T07:46:30.851Z,6.37
2017-09-21T07:48:58.851Z,2.40
2017-09-21T07:51:26.736Z,3.43
2017-09-21T07:53:54.624Z,3.03
2017-09-21T07:56:22.567Z,2.60
2017-09-21T07:58:50.411Z,4.07
2017-09-21T08:01:18.280Z,3.03
2017-09-21T08:03:46.233Z,4.47
2017-09-21T08:06:14.009Z,5.83
2017-09-21T08:08:41.904Z,4.17
2017-09-21T08:11:09.871Z,3.03
2017-09-21T08:13:37.717Z,5.00
2017-09-21T08:16:05.573Z,5.43
2017-09-21T08:18:34.183Z,7.27
2017-09-21T08:21:01.975Z,8.93
2017-09-21T08:23:30.277Z,9.77
2017-09-21T08:25:58.182Z,8.87
2017-09-21T08:28:26.033Z,10.83
2017-09-21T08:30:53.801Z,8.63
2017-09-21T08:33:21.610Z,12.20
2017-09-21T08:35:49.659Z,8.13
2017-09-21T08:38:17.468Z,10.57
2017-09-21T08:40:45.431Z,12.87
2017-09-21T08:43:13.313Z,10.00
2017-09-21T08:45:41.131Z,9.60
2017-09-21T08:48:09.098Z,11.97
2017-09-21T08:50:37.014Z,10.33
2017-09-21T08:53:08.010Z,16.43
2017-09-21T08:55:35.925Z,11.10
2017-09-21T08:58:04.648Z,10.97
2017-09-21T09:00:32.609Z,10.10
2017-09-21T09:03:00.386Z,15.60
2017-09-21T09:05:28.195Z,12.23
2017-09-21T09:07:56.242Z,10.43
2017-09-21T09:10:24.918Z,13.60
2017-09-21T09:12:52.761Z,11.67
2017-09-21T09:15:20.613Z,19.27
2017-09-21T09:17:48.634Z,12.00
2017-09-21T09:20:16.411Z,10.47
2017-09-21T09:22:44.968Z,12.00
2017-09-21T09:25:12.821Z,15.40
2017-09-21T09:27:40.740Z,16.40
2017-09-21T09:30:08.562Z,13.90
2017-09-21T09:32:36.494Z,12.90
2017-09-21T09:35:04.391Z,10.17
2017-09-21T09:37:32.377Z,11.77
2017-09-21T09:40:00.237Z,15.43
2017-09-21T09:42:28.165Z,9.20
2017-09-21T09:44:56.070Z,8.37
2017-09-21T09:47:23.930Z,10.40
2017-09-21T09:49:51.857Z,14.10
2017-09-21T09:52:19.788Z,13.80
2017-09-21T09:54:47.701Z,14.30
2017-09-21T09:57:15.626Z,11.20
2017-09-21T09:59:43.455Z,11.63
2017-09-21T10:02:11.333Z,8.90
2017-09-21T10:04:39.279Z,13.43
2017-09-21T10:07:07.976Z,10.40
2017-09-21T10:09:35.842Z,10.90
2017-09-21T10:12:03.744Z,12.17
2017-09-21T10:14:31.682Z,14.40
2017-09-21T10:16:59.485Z,12.27
2017-09-21T10:19:27.391Z,14.93
2017-09-21T10:21:55.488Z,15.87
2017-09-21T10:24:24.140Z,14.03
2017-09-21T10:26:52.100Z,10.77
2017-09-21T10:29:19.974Z,11.90
2017-09-21T10:31:47.849Z,11.93
2017-09-21T10:34:15.665Z,12.33
2017-09-21T10:36:44.361Z,12.77
2017-09-21T10:39:12.264Z,16.07
2017-09-21T10:41:40.190Z,15.87
2017-09-21T10:44:07.983Z,14.17
2017-09-21T10:46:35.839Z,14.70
2017-09-21T10:49:03.700Z,15.67
2017-09-21T10:51:31.670Z,11.63
2017-09-21T10:53:59.527Z,14.73
2017-09-21T10:56:28.157Z,12.67
2017-09-21T10:58:56.076Z,15.83
2017-09-21T11:01:23.997Z,15.77
2017-09-21T11:03:51.922Z,14.90
2017-09-21T11:06:20.708Z,15.83
2017-09-21T11:08:48.675Z,14.80
2017-09-21T11:11:16.555Z,18.57
2017-09-21T11:13:44.428Z,17.20
2017-09-21T11:16:13.084Z,18.20
2017-09-21T11:18:40.920Z,13.13
2017-09-21T11:21:08.895Z,14.23
2017-09-21T11:23:36.787Z,16.90
2017-09-21T11:26:04.654Z,14.00
2017-09-21T11:28:32.543Z,15.03
2017-09-21T11:31:00.388Z,14.27
2017-09-21T11:33:28.320Z,15.73
2017-09-21T11:35:56.249Z,15.13
2017-09-21T11:38:24.157Z,15.33
2017-09-21T11:40:52.020Z,19.83
2017-09-21T11:43:20.647Z,14.00
2017-09-21T11:45:48.579Z,15.17
2017-09-21T11:48:16.553Z,12.97
2017-09-21T11:50:45.230Z,17.30
2017-09-21T11:53:14.004Z,13.50
2017-09-21T11:55:41.804Z,13.90
2017-09-21T11:58:09.919Z,14.77
2017-09-21T12:00:37.872Z,11.10
2017-09-21T12:03:05.724Z,11.20
2017-09-21T12:05:33.702Z,13.70
2017-09-21T12:08:01.516Z,9.63
2017-09-21T12:10:29.480Z,11.73
2017-09-21T12:12:57.365Z,15.67
2017-09-21T12:15:25.296Z,8.93
2017-09-21T12:17:53.153Z,9.67
2017-09-21T12:20:21.114Z,9.50
2017-09-21T12:22:49.014Z,7.50
2017-09-21T12:25:18.162Z,7.10
2017-09-21T12:27:46.167Z,9.30
2017-09-21T12:30:14.095Z,10.43
2017-09-21T12:32:42.847Z,8.13
2017-09-21T12:35:10.789Z,11.50
2017-09-21T12:37:38.626Z,10.80
2017-09-21T12:40:07.592Z,12.70
2017-09-21T12:42:35.395Z,9.03
2017-09-21T12:45:03.260Z,8.00
2017-09-21T12:47:31.164Z,13.73
2017-09-21T12:49:58.945Z,9.77
2017-09-21T12:52:26.815Z,8.00
2017-09-21T12:54:54.608Z,7.60
2017-09-21T12:57:22.394Z,9.83
2017-09-21T12:59:50.306Z,11.67
2017-09-21T13:02:18.322Z,11.07
2017-09-21T13:04:46.251Z,8.17
2017-09-21T13:07:14.129Z,11.30
2017-09-21T13:09:42.048Z,9.80
2017-09-21T13:12:10.467Z,11.33
2017-09-21T13:14:38.343Z,9.70
2017-09-21T13:17:06.158Z,8.20
2017-09-21T13:19:33.954Z,8.10
2017-09-21T13:22:01.983Z,6.43
2017-09-21T13:24:29.935Z,7.30
2017-09-21T13:26:59.800Z,7.10
2017-09-21T13:29:28.395Z,7.77
2017-09-21T13:31:56.396Z,9.07
2017-09-21T13:34:24.341Z,11.13
2017-09-21T13:36:52.216Z,8.37
2017-09-21T13:39:20.076Z,6.50
2017-09-21T13:41:49.232Z,6.13
2017-09-21T13:44:17.118Z,9.30
2017-09-21T13:46:45.034Z,9.70
2017-09-21T13:49:12.860Z,6.17
2017-09-21T13:51:40.677Z,7.13
2017-09-21T13:54:08.443Z,9.30
2017-09-21T13:56:36.208Z,7.13
2017-09-21T13:59:04.072Z,7.70
2017-09-21T14:01:31.878Z,7.67
2017-09-21T14:03:59.639Z,6.70
2017-09-21T14:06:27.489Z,6.87
2017-09-21T14:08:55.292Z,10.20
2017-09-21T14:11:23.179Z,5.97
2017-09-21T14:13:51.988Z,7.43
2017-09-21T14:16:19.777Z,6.97
2017-09-21T14:18:47.498Z,6.23
2017-09-21T14:21:15.320Z,7.57
2017-09-21T14:23:43.147Z,6.47
2017-09-21T14:26:11.081Z,10.60
2017-09-21T14:28:38.999Z,7.80
2017-09-21T14:31:06.846Z,7.83
2017-09-21T14:33:34.752Z,8.13
2017-09-21T14:36:02.526Z,6.30
2017-09-21T14:38:30.384Z,8.97
2017-09-21T14:40:58.184Z,9.13
2017-09-21T14:43:26.084Z,6.40
2017-09-21T14:45:53.976Z,8.73
2017-09-21T14:48:21.887Z,11.03
2017-09-21T14:50:49.750Z,8.10
2017-09-21T14:53:17.699Z,8.00
2017-09-21T14:55:45.557Z,8.83
2017-09-21T14:58:13.476Z,8.37
2017-09-21T15:00:41.811Z,7.63
2017-09-21T15:03:10.502Z,13.87
2017-09-21T15:05:39.745Z,6.63
2017-09-21T15:08:07.701Z,7.80
2017-09-21T15:10:35.440Z,6.57
2017-09-21T15:13:03.283Z,6.57
2017-09-21T15:15:31.010Z,7.87
2017-09-21T15:17:58.745Z,7.43
2017-09-21T15:20:26.576Z,7.00
2017-09-21T15:22:54.318Z,9.47
2017-09-21T15:25:22.111Z,6.87
2017-09-21T15:27:49.844Z,7.33
2017-09-21T15:30:17.663Z,8.40
2017-09-21T15:32:45.489Z,7.20
2017-09-21T15:35:13.283Z,8.43
2017-09-21T15:37:41.100Z,7.00
2017-09-21T15:40:08.939Z,7.40
2017-09-21T15:42:37.579Z,7.90
2017-09-21T15:45:05.437Z,8.50
2017-09-21T15:47:33.274Z,13.73
2017-09-21T15:50:01.181Z,10.23
2017-09-21T15:52:29.848Z,8.97
2017-09-21T15:54:57.740Z,6.77
2017-09-21T15:57:25.678Z,5.57
2017-09-21T15:59:53.467Z,7.03
2017-09-21T16:02:22.239Z,7.00
2017-09-21T16:04:50.084Z,14.43
2017-09-21T16:07:18.616Z,8.33
2017-09-21T16:09:47.277Z,4.53
2017-09-21T16:12:15.088Z,5.57
2017-09-21T16:14:42.968Z,8.33
2017-09-21T16:17:10.846Z,6.63
2017-09-21T16:19:38.940Z,7.73
2017-09-21T16:22:07.649Z,10.97
2017-09-21T16:24:35.428Z,9.60
2017-09-21T16:27:03.205Z,9.43
2017-09-21T16:29:31.138Z,6.40
2017-09-21T16:31:58.903Z,9.80
2017-09-21T16:34:27.837Z,6.90
2017-09-21T16:36:55.665Z,7.17
2017-09-21T16:39:27.406Z,5.90
2017-09-21T16:41:55.263Z,12.80
2017-09-21T16:44:23.112Z,11.90
2017-09-21T16:46:51.158Z,6.00
2017-09-21T16:49:20.518Z,4.90
2017-09-21T16:51:50.950Z,9.37
2017-09-21T16:54:19.499Z,9.33
2017-09-21T16:56:48.572Z,6.07
2017-09-21T16:59:23.669Z,7.27
2017-09-21T17:01:56.889Z,7.47
2017-09-21T17:04:27.175Z,5.30
2017-09-21T17:06:56.901Z,10.80
2017-09-21T17:09:31.171Z,6.50
2017-09-21T17:12:25.559Z,8.20
2017-09-21T17:15:03.879Z,11.57
2017-09-21T17:17:32.753Z,4.73
2017-09-21T17:22:38.391Z,9.73
2017-09-21T17:25:06.203Z,5.90
2017-09-21T17:27:35.848Z,12.13
2017-09-21T17:30:03.921Z,10.50
2017-09-21T17:32:31.817Z,6.23
2017-09-21T17:34:59.605Z,5.10
2017-09-21T17:37:27.588Z,5.53
2017-09-21T17:39:55.482Z,5.17
2017-09-21T17:42:24.262Z,5.67
2017-09-21T17:44:52.040Z,9.47
2017-09-21T17:47:22.757Z,8.10
2017-09-21T17:53:10.074Z,7.33
2017-09-21T17:55:52.422Z,6.93
2017-09-21T17:58:20.378Z,4.50
2017-09-21T18:00:48.128Z,5.50
2017-09-21T18:05:55.679Z,11.23
2017-09-21T18:08:24.127Z,6.70
2017-09-21T18:10:53.005Z,8.60
2017-09-21T18:13:25.471Z,7.73
2017-09-21T18:15:53.456Z,7.13
2017-09-21T18:18:23.363Z,11.67
2017-09-21T18:20:51.577Z,6.77
2017-09-21T18:23:19.650Z,5.43
2017-09-21T18:25:51.864Z,11.17
2017-09-21T18:28:27.488Z,11.40
2017-09-21T18:46:54.627Z,18.93
2017-09-21T18:52:42.144Z,11.37
2017-09-21T19:12:36.999Z,9.53
2017-09-21T19:48:04.141Z,8.40
2017-09-21T19:51:04.956Z,8.27
2017-09-21T19:59:18.087Z,7.03
2017-09-21T20:01:46.937Z,6.40
2017-09-21T20:04:14.959Z,5.80
2017-09-21T20:06:42.936Z,7.27
2017-09-21T20:09:13.596Z,7.80
2017-09-21T20:11:43.408Z,7.60
2017-09-21T20:14:11.466Z,7.00
2017-09-21T20:16:39.958Z,5.90
2017-09-21T20:19:07.839Z,5.30
2017-09-21T20:21:35.744Z,5.70
2017-09-21T20:24:12.274Z,5.60
2017-09-21T20:26:40.079Z,5.30
2017-09-21T20:29:07.912Z,6.07
2017-09-21T20:31:35.736Z,6.33
2017-09-21T20:34:04.348Z,4.97
2017-09-21T20:36:37.954Z,5.30
2017-09-21T20:39:10.009Z,4.80
2017-09-21T20:41:37.788Z,5.00
2017-09-21T20:44:06.950Z,3.90
2017-09-21T20:46:34.748Z,5.20
2017-09-21T20:49:02.559Z,10.27
2017-09-21T20:51:30.405Z,4.00
2017-09-21T20:53:58.270Z,5.23
2017-09-21T20:56:26.037Z,3.07
2017-09-21T20:58:53.849Z,5.47
2017-09-21T21:01:21.626Z,5.23
2017-09-21T21:03:50.418Z,3.60
2017-09-21T21:06:18.231Z,3.30
2017-09-21T21:08:46.022Z,10.53
2017-09-21T21:11:14.505Z,4.00
2017-09-21T21:13:43.048Z,12.83
2017-09-21T21:16:10.903Z,7.00
2017-09-21T21:18:38.691Z,4.70
2017-09-21T21:21:06.489Z,4.70
2017-09-21T21:23:35.145Z,7.03
2017-09-21T21:26:02.911Z,6.93
2017-09-21T21:28:30.668Z,3.30
2017-09-21T21:30:58.582Z,2.83
2017-09-21T21:33:26.497Z,4.17
2017-09-21T21:35:54.393Z,3.50
2017-09-21T21:38:22.358Z,2.93
2017-09-21T21:40:50.213Z,1.77
2017-09-21T21:43:18.026Z,4.57
2017-09-21T21:45:45.866Z,2.90
2017-09-21T21:48:13.632Z,3.83
2017-09-21T21:50:41.434Z,6.00
2017-09-21T21:53:09.271Z,3.90
2017-09-21T21:55:45.252Z,4.17
2017-09-21T21:58:13.296Z,2.63
2017-09-21T22:00:42.481Z,3.20
2017-09-21T22:03:10.305Z,2.90
2017-09-21T22:05:38.148Z,7.23
2017-09-21T22:08:05.935Z,2.90
2017-09-21T22:10:34.693Z,8.37
2017-09-21T22:13:02.497Z,2.70
2017-09-21T22:15:31.056Z,5.37
2017-09-21T22:17:58.933Z,6.20
2017-09-21T22:20:26.679Z,5.23
2017-09-21T22:22:54.782Z,6.73
2017-09-21T22:25:23.488Z,3.67
2017-09-21T22:27:51.384Z,5.20
2017-09-21T22:30:19.270Z,2.43
2017-09-21T22:32:47.146Z,3.27
2017-09-21T22:35:15.052Z,6.00
2017-09-21T22:37:42.945Z,4.07
2017-09-21T22:40:10.791Z,6.80
2017-09-21T22:42:38.657Z,4.17
2017-09-21T22:45:06.535Z,3.73
2017-09-21T22:47:35.162Z,3.80
2017-09-21T22:50:03.056Z,1.93
2017-09-21T22:52:30.913Z,5.23
2017-09-21T22:54:58.871Z,2.47
2017-09-21T22:57:26.792Z,2.70
2017-09-21T22:59:54.671Z,4.47
2017-09-21T23:02:23.378Z,4.30
2017-09-21T23:04:51.253Z,4.60
2017-09-21T23:07:19.101Z,2.57
2017-09-21T23:09:47.042Z,3.53
2017-09-21T23:12:14.926Z,6.80
2017-09-21T23:14:42.772Z,3.30
2017-09-21T23:17:10.737Z,2.23
2017-09-21T23:19:38.584Z,3.30
2017-09-21T23:22:06.462Z,3.87
2017-09-21T23:24:34.324Z,6.07
2017-09-21T23:27:02.188Z,3.63
2017-09-21T23:29:30.053Z,4.53
2017-09-21T23:31:57.995Z,4.80
2017-09-21T23:34:25.877Z,2.63
2017-09-21T23:36:53.742Z,3.07
2017-09-21T23:39:21.602Z,5.17
2017-09-21T23:41:49.492Z,4.70
2017-09-21T23:44:17.340Z,6.20
2017-09-21T23:46:45.194Z,2.20
2017-09-21T23:49:13.043Z,2.30
2017-09-21T23:51:40.898Z,5.60
2017-09-21T23:54:08.758Z,2.50
2017-09-21T23:56:36.674Z,2.33
2017-09-21T23:59:04.587Z,2.47
